Euskara    
Meteorología y climatología de Navarra
Datos de la estación - Meteo Navarra

Estación de Arangoiti GN

Altitud 1353 m.


Datos desde el 23/02/2021 hasta el 24/02/2021 en horario solar
Los datos son PROVISIONALES

Anterior Página 1 de 1 Siguiente Descargar: Formato para Excel 2000 o superior   Formato csv   Formato para OpenOffice Calc
Fecha Temperatura Humedad relativa Radiación global Insolación Precipitación Vel. viento 10 m Vel. viento 10 m Dir. viento 10 m
°C % W/m² s l/m² m/s km/h °
23/02/2021 0:00 2.4 100 0.0 0 0.0 10.9 39.3 151
23/02/2021 0:10 2.3 100 0.0 0 0.0 11.7 42.3 152
23/02/2021 0:20 2.3 100 0.0 0 0.0 12.3 44.2 152
23/02/2021 0:30 2.1 100 0.0 0 0.0 12.8 46.0 152
23/02/2021 0:40 2.1 100 0.0 0 0.0 14.7 52.8 152
23/02/2021 0:50 2.2 100 0.0 0 0.0 14.4 51.7 153
23/02/2021 1:00 2.1 100 0.0 0 0.0 13.8 49.5 154
23/02/2021 1:10 2.4 100 0.0 0 0.0 12.6 45.5 153
23/02/2021 1:20 2.2 100 0.0 0 0.0 12.2 43.9 154
23/02/2021 1:30 2.2 100 0.0 0 0.0 12.8 46.1 154
23/02/2021 1:40 2.4 100 0.0 0 0.0 14.0 50.5 155
23/02/2021 1:50 2.4 100 0.0 0 0.0 13.3 47.9 157
23/02/2021 2:00 2.3 100 0.0 0 0.0 11.3 40.8 161
23/02/2021 2:10 2.3 100 0.0 0 0.0 11.9 42.8 167
23/02/2021 2:20 2.6 100 0.0 0 0.0 11.0 39.7 171
23/02/2021 2:30 2.5 100 0.0 0 0.0 11.4 41.1 171
23/02/2021 2:40 2.3 100 0.0 0 0.0 11.2 40.3 170
23/02/2021 2:50 2.6 100 0.0 0 0.0 10.3 37.0 171
23/02/2021 3:00 2.5 100 0.0 0 0.0 9.7 35.0 166
23/02/2021 3:10 2.3 100 0.0 0 0.0 9.8 35.1 167
23/02/2021 3:20 2.4 100 0.0 0 0.0 9.2 33.1 173
23/02/2021 3:30 2.5 100 0.0 0 0.0 8.3 29.9 175
23/02/2021 3:40 2.5 100 0.0 0 0.0 8.7 31.4 179
23/02/2021 3:50 2.6 100 0.0 0 0.0 9.6 34.4 178
23/02/2021 4:00 2.5 100 0.0 0 0.0 9.8 35.4 174
23/02/2021 4:10 2.5 100 0.0 0 0.0 9.2 33.3 171
23/02/2021 4:20 2.5 100 0.0 0 0.0 9.5 34.3 168
23/02/2021 4:30 2.4 100 0.0 0 0.0 10.9 39.4 165
23/02/2021 4:40 2.3 100 0.0 0 0.0 9.8 35.3 167
23/02/2021 4:50 2.2 100 0.0 0 0.0 9.5 34.1 173
23/02/2021 5:00 2.3 100 0.0 0 0.0 9.6 34.4 180
23/02/2021 5:10 2.3 100 0.0 0 0.0 8.8 31.8 178
23/02/2021 5:20 2.3 100 0.0 0 0.0 10.2 36.8 181
23/02/2021 5:30 2.4 100 0.0 0 0.0 9.9 35.5 175
23/02/2021 5:40 2.3 100 0.0 0 0.0 10.0 35.9 178
23/02/2021 5:50 2.3 100 0.0 0 0.0 10.4 37.3 175
23/02/2021 6:00 2.2 100 0.0 0 0.0 9.7 35.0 175
23/02/2021 6:10 2.3 100 0.0 0 0.0 9.7 34.8 172
23/02/2021 6:20 2.4 100 0.0 0 0.1 9.1 32.8 173
23/02/2021 6:30 2.3 100 0.0 0 0.0 9.8 35.1 174
23/02/2021 6:40 2.3 100 0.0 0 0.0 10.8 38.8 172
23/02/2021 6:50 2.4 100 0.0 0 0.0 10.7 38.6 174
23/02/2021 7:00 2.5 100 8.6 0 0.0 11.3 40.6 173
23/02/2021 7:10 2.4 100 20.5 72 0.0 11.3 40.6 176
23/02/2021 7:20 2.5 100 29.6 332 0.1 11.4 40.9 178
23/02/2021 7:30 2.6 100 27.5 0 0.0 11.1 39.8 178
23/02/2021 7:40 2.6 100 28.4 0 0.0 12.0 43.1 175
23/02/2021 7:50 2.8 100 30.2 0 0.0 13.8 49.5 172
23/02/2021 8:00 2.7 100 37.9 0 0.0 14.6 52.6 172
23/02/2021 8:10 2.8 100 47.9 0 0.0 14.2 51.0 173
23/02/2021 8:20 2.7 100 40.2 0 0.0 12.3 44.2 165
23/02/2021 8:30 2.9 100 60.7 0 0.0 13.3 47.8 162
23/02/2021 8:40 2.9 100 64.2 0 0.0 12.7 45.9 162
23/02/2021 8:50 3.0 100 91.0 0 0.0 13.2 47.6 166
23/02/2021 9:00 3.1 100 93.5 0 0.0 12.5 45.0 170
23/02/2021 9:10 3.3 100 93.7 0 0.0 11.2 40.4 163
23/02/2021 9:20 3.1 100 84.3 0 0.0 11.9 42.9 177
23/02/2021 9:30 3.0 100 105.3 0 0.0 11.3 40.6 167
23/02/2021 9:40 2.9 100 82.6 0 0.0 12.5 44.8 163
23/02/2021 9:50 3.1 100 94.1 0 0.0 13.2 47.5 163
23/02/2021 10:00 3.2 100 81.7 0 0.0 13.6 48.8 160
23/02/2021 10:10 3.1 100 75.8 0 0.0 13.8 49.5 167
23/02/2021 10:20 3.1 100 95.4 0 0.0 14.7 52.8 163
23/02/2021 10:30 3.3 100 133.7 0 0.0 15.2 54.6 166
23/02/2021 10:40 3.5 100 157.8 0 0.0 15.7 56.5 168
23/02/2021 10:50 3.6 100 101.6 0 0.0 15.1 54.3 167
23/02/2021 11:00 3.6 100 83.3 0 0.0 14.5 52.1 164
23/02/2021 11:10 3.6 100 81.0 0 0.0 15.5 55.7 164
23/02/2021 11:20 3.6 100 76.2 0 0.0 15.9 57.3 163
23/02/2021 11:30 3.4 100 86.6 0 0.0 15.8 56.7 164
23/02/2021 11:40 3.7 100 135.4 0 0.0 14.8 53.1 169
23/02/2021 11:50 3.8 100 99.5 0 0.0 14.6 52.5 163
23/02/2021 12:00 4.0 100 169.5 0 0.0 16.1 58.0 162
23/02/2021 12:10 4.5 100 241.3 92 0.0 16.5 59.3 160
23/02/2021 12:20 4.2 100 286.4 122 0.0 18.2 65.6 163
23/02/2021 12:30 4.5 100 432.7 280 0.0 18.5 66.7 166
23/02/2021 12:40 4.1 100 99.4 0 0.0 17.3 62.4 165
23/02/2021 12:50 4.3 100 145.9 0 0.0 17.0 61.0 162
23/02/2021 13:00 4.1 100 177.5 10 0.0 17.5 62.9 161
23/02/2021 13:10 4.2 100 156.9 0 0.0 18.2 65.4 161
23/02/2021 13:20 4.4 100 206.0 84 0.0 17.4 62.7 162
23/02/2021 13:30 4.6 100 251.4 132 0.0 17.3 62.3 160
23/02/2021 13:40 4.6 100 241.8 100 0.0 17.5 62.9 158
23/02/2021 13:50 4.7 100 275.2 162 0.0 18.1 65.2 159
23/02/2021 14:00 5.5 96 320.7 312 0.0 16.7 60.2 159
23/02/2021 14:10 5.2 96 311.3 272 0.0 17.7 63.8 159
23/02/2021 14:20 5.7 93 450.5 438 0.0 16.9 60.8 164
23/02/2021 14:30 6.1 92 414.5 458 0.0 17.2 61.8 162
23/02/2021 14:40 6.2 89 366.0 450 0.0 18.0 64.7 160
23/02/2021 14:50 6.4 88 442.9 504 0.0 18.5 66.7 159
23/02/2021 15:00 6.4 87 408.1 432 0.0 18.1 65.2 159
23/02/2021 15:10 6.3 89 346.2 444 0.0 18.5 66.7 161
23/02/2021 15:20 6.0 88 384.1 496 0.0 19.4 69.7 162
23/02/2021 15:30 6.1 87 398.8 574 0.0 19.4 69.8 161
23/02/2021 15:40 6.1 88 339.0 560 0.0 19.2 69.2 162
23/02/2021 15:50 5.9 87 321.6 540 0.0 19.0 68.5 160
23/02/2021 16:00 5.8 87 270.6 510 0.0 19.1 68.8 161
23/02/2021 16:10 5.8 89 169.8 388 0.0 18.0 64.8 163
23/02/2021 16:20 5.9 86 109.2 194 0.0 17.8 63.9 160
23/02/2021 16:30 5.9 89 82.0 188 0.0 17.0 61.1 161
23/02/2021 16:40 5.6 90 91.7 228 0.0 16.8 60.4 160
23/02/2021 16:50 5.5 90 42.0 0 0.0 15.9 57.3 158
23/02/2021 17:00 5.4 90 74.3 278 0.0 15.1 54.3 159
23/02/2021 17:10 5.4 90 64.3 568 0.0 14.3 51.6 160
23/02/2021 17:20 5.3 93 46.3 600 0.0 14.0 50.5 162
23/02/2021 17:30 5.1 93 37.4 600 0.0 14.3 51.4 164
23/02/2021 17:40 4.7 94 26.8 122 0.0 13.6 48.9 164
23/02/2021 17:50 4.7 94 19.2 0 0.0 13.6 48.9 165
23/02/2021 18:00 4.8 94 5.0 0 0.0 14.6 52.5 162
23/02/2021 18:10 4.9 94 0.0 0 0.0 14.3 51.5 160
23/02/2021 18:20 4.6 95 0.0 0 0.0 13.6 48.9 158
23/02/2021 18:30 4.9 95 0.0 0 0.0 14.0 50.5 157
23/02/2021 18:40 4.6 95 0.0 0 0.0 13.4 48.2 154
23/02/2021 18:50 4.7 96 0.0 0 0.0 13.8 49.6 154
23/02/2021 19:00 4.8 96 0.0 0 0.0 14.6 52.7 158
23/02/2021 19:10 4.4 97 0.0 0 0.0 15.2 54.7 157
23/02/2021 19:20 4.5 97 0.0 0 0.0 15.6 56.2 157
23/02/2021 19:30 4.4 97 0.0 0 0.0 16.3 58.8 159
23/02/2021 19:40 4.6 98 0.0 0 0.0 15.7 56.4 156
23/02/2021 19:50 4.9 98 0.0 0 0.0 16.0 57.7 156
23/02/2021 20:00 4.8 98 0.0 0 0.0 15.4 55.4 156
23/02/2021 20:10 4.9 99 0.0 0 0.0 14.4 51.9 156
23/02/2021 20:20 4.9 99 0.0 0 0.0 15.5 55.7 156
23/02/2021 20:30 4.7 100 0.0 0 0.0 15.2 54.5 157
23/02/2021 20:40 4.9 100 0.0 0 0.0 15.5 55.7 158
23/02/2021 20:50 4.9 100 0.0 0 0.0 15.9 57.3 158
23/02/2021 21:00 5.0 100 0.0 0 0.0 15.6 56.0 157
23/02/2021 21:10 5.2 100 0.0 0 0.0 15.5 55.8 160
23/02/2021 21:20 5.0 100 0.0 0 0.0 15.6 56.1 158
23/02/2021 21:30 5.2 100 0.0 0 0.0 14.8 53.4 159
23/02/2021 21:40 4.9 100 0.0 0 0.0 14.4 51.7 160
23/02/2021 21:50 4.9 100 0.0 0 0.0 14.3 51.6 162
23/02/2021 22:00 4.9 100 0.0 0 0.0 14.1 50.7 163
23/02/2021 22:10 4.9 100 0.0 0 0.0 13.6 49.0 163
23/02/2021 22:20 4.7 100 0.0 0 0.0 14.6 52.4 166
23/02/2021 22:30 4.6 100 0.0 0 0.0 15.1 54.3 169
23/02/2021 22:40 4.6 100 0.0 0 0.0 15.5 55.8 171
23/02/2021 22:50 4.6 100 0.0 0 0.0 15.3 55.0 173
23/02/2021 23:00 4.8 100 0.0 0 0.0 17.2 62.1 173
23/02/2021 23:10 4.9 100 0.0 0 0.0 17.0 61.0 170
23/02/2021 23:20 5.2 100 0.0 0 0.0 18.0 64.7 175
23/02/2021 23:30 5.2 100 0.0 0 0.0 18.6 67.1 175
23/02/2021 23:40 5.1 100 0.0 0 0.0 18.6 67.0 175
23/02/2021 23:50 5.1 100 0.0 0 0.0 18.4 66.2 172
Anterior Página 1 de 1 Siguiente
Los datos de precipitación registrados en estaciones que están en cumbres son inferiores a lo real, como consecuencia del efecto del viento y de la nieve.


NOTA: Tipo de datos según el color:
   - Valores diarios o 10 minutos correctos
   - Valores diarios calculados a partir de un número de datos 10 minutos menor que 144 y mayor que 120, o de un número de datos semihorarios menor que 48 y mayor que 40 (caso de las estaciones de INTIA Y Ministerio)
   - Valores diez minutos estimados


Contacto        Enlaces        Aviso legal